Accueil
METAR-TAF:

METAR-TAF

Aéroports :

Aéroport de Zaqatala

Zaqatala, Azerbaïdjan

latitude: 41-33-44N, longitude: 46-40-02E, altitude: 330 m

Observation

Le bulletin a été fait il y a 29 minutes, à 15:00 UTC
Vent 6 kt de sud/sud-est
Température 21°C
Humidité 56%
Pression 1016 hPa
Visibilité 10 km ou plus
Quelques nuages à une hauteur de 10000 ft

METAR: UBBY 171500Z 16006KT 9999 FEW100 21/12 Q1016 NOSIG

Heure: 19:29 (15:29 UTC)

Prévision

Le bulletin a été fait il y a 1 heure et 29 minutes, à 14:00 UTC
Prévision valable du 17 à 15 UTC au 17 à 24 UTC
Vent 4 kt de direction variable
Visibilité 10 km ou plus
Nuages épars à une hauteur de 5000 ft
Temporairement
du 17 à 15 UTC au 17 à 21 UTC
Vent 8 kt de est

TAF: UBBY 171400Z 1715/1724 VRB04KT 9999 SCT050 TEMPO 1715/1721 10008KT

Observations et prévisions météorologiques de plus de 4000 aéroports (messages METAR et TAF).

Les stations disponibles sont représentées par des disques jaunes et rouges sur la carte.

Passer la souris dessus pour voir le nom de la station.

Cliquer dessus pour voir les observations et prévisions météorologiques.

Pour changer de carte: cliquez sur les boutons verts avec une croix noire pour zoomer, sur le bouton vert avec un tiret pour effectuer un zoom arrière, ou sur les flèches vertes pour les cartes adjacentes.


METAR-TAF: